Terminal Aerodrome Forecast
Issued by NWS Burlington, VT

Home | Current Version | Previous Version | Text Only | Print | Product List | Glossary On
Versions: 1 2 3 4 5 6 7 8 9 10 11 12 13 14 15 16 17 18 19 20 21 22 23
170
FTUS41 KBTV 120538
TAFBTV
TAF
KBTV 120538Z 1206/1306 31011KT P6SM BKN030
     FM120800 30010G17KT P6SM SCT040
     FM121200 27006KT P6SM FEW250
     FM121400 20004KT P6SM SCT150
     FM121700 19010G18KT P6SM BKN050
     FM122000 18012G22KT P6SM VCSH BKN070=

USA.gov is the U.S. government's official web portal to all federal, state and local government web resources and services.